ADDS TAF Board (Experimental) INFO Settings

IDs: Format: Expanded Condensed

KCLT - Charlotte/Douglas In, NC, US

Issued at 0540 UTC 04 Mar 2015
Updated at: 0658 UTC 04 Mar 2015
Time0652Z 04/07Z 04/08Z 04/09Z 04/10Z 04/11Z 04/12Z 04/13Z 04/14Z 04/15Z 04/16Z 04/17Z 04/18Z 04/19Z
Type OBS PRVL PRVL
  [TEMP]  
PRVL
  [TEMP]  
PRVL
  [TEMP]  
PRVL
  [TEMP]  
PRVL PRVL PRVL PRVL PRVL PRVL PRVL PRVL
VIS 0.5 1.5 1.5
  [0.5]  
1.5
  [0.5]  
1.5
  [0.5]  
1.5
  [0.5]  
0.5 0.5 3 3 >6 >6 >6 >6
CIG 2 2 2
  [1]  
2
  [1]  
2
  [1]  
2
  [1]  
2 2 3 3 50 50 50 50
Cover OVX OVC OVC
  [OVX]  
OVC
  [OVX]  
OVC
  [OVX]  
OVC
  [OVX]  
OVC OVC BKN BKN BKN BKN BKN BKN
FltCat LIFR LIFR LIFR
  [LIFR]  
LIFR
  [LIFR]  
LIFR
  [LIFR]  
LIFR
  [LIFR]  
LIFR LIFR LIFR LIFR VFR VFR VFR VFR
WX -DZ BR BR BR
  [FG]  
BR
  [FG]  
BR
  [FG]  
BR
  [FG]  
FG FG BR BR -- -- -- --
WDir 200 210 210
[210]
210
[210]
210
[210]
210
[210]
200 200 210 210 210 210 210 210
WSpd 5 5 5
  [5]  
5
  [5]  
5
  [5]  
5
  [5]  
8 8 9 9 12 12 12 12
WGst -- -- --
  [--]  
--
  [--]  
--
  [--]  
--
  [--]  
-- -- -- -- -- -- -- --
R05/23
XWnd -2 -2 -2 -2 -2 -2 -4 -4 -3 -3 -4 -4 -4 -4
XGst -- -- 0 0 0 0 -- -- -- -- -- -- -- --
HWnd -4 -5 -5 -5 -5 -5 -7 -7 -9 -9 -11 -11 -11 -11
HGst -- -- 0 0 0 0 -- -- -- -- -- -- -- --
R18/36
XWnd -2 -3 -3 -3 -3 -3 -3 -3 -5 -5 -7 -7 -7 -7
XGst -- -- 0 0 0 0 -- -- -- -- -- -- -- --
HWnd 5 4 4 4 4 4 7 7 7 7 10 10 10 10
HGst -- -- 0 0 0 0 -- -- -- -- -- -- -- --

NOTE: TEMPO conditions in [brackets]. Keep in mind TEMPO conditions might be better (lower impact) than prevailing conditions.

Raw TAF
KCLT 040540Z 0406/0506 21005KT 1 1/2SM BR OVC002
  TEMPO 0408/0412 1/2SM FG VV001
  FM041200 20008KT 1/2SM FG OVC002 WS020/24045KT
  FM041400 21009KT 3SM BR BKN003 WS020/24040KT
  FM041600 21012KT P6SM BKN050


Raw METAR
KCLT 040652Z 20005KT 1/2SM R18C/3000V3500FT -DZ BR VV002 06/04 A3006 RMK AO2 SFC VIS 3/4 SLP182 P0000 T00560044
KCLT 040552Z 23003KT 1/2SM R18C/6000VP6000FT -DZ BR OVC002 06/04 A3008 RMK AO2 SFC VIS 1 SLP187 P0000 60003 T00560044 10056 20050 56023
KCLT 040452Z 00000KT 1 1/2SM -DZ BR OVC002 06/04 A3010 RMK AO2 SFC VIS 1 3/4 DZB48 SLP193 P0000 T00560044 401060044
KCLT 040352Z 19005KT 1 1/2SM BR BKN002 OVC011 06/04 A3012 RMK AO2 SFC VIS 6 SLP202 T00560039

METAR Board
Radar Display
Forecast Discussion

TAF Board Legend

Potential Impact
Threat None Slight Moderate High
Visibility (sm) ≥5.1 5.1>X≥3 3>X≥1 <1
Ceiling (100 ft) ≥30.1 30.1>X≥10 10>X≥5 <5
Wind Speed (kt) <10 10≤X<20 20≤X<30 ≥30
Wind Gust (kt) <15 15≤X<25 25≤X<35 ≥35
Weather No Wx Reported VCTS,-TS,-FZRA,SN TS,FZRA +TS,+FZRA,+SN